Sula, Montana
Current Conditions -  °F | °C
As of 2:53 PM on Wednesday 22 Oct 2014 (Local Time) from KBTM Reporting Station
Clear Clear  
Wind Chill: 51°   Ceiling: Unl
Heat Index: 51°   Visibility: 10mi
Dew Point: 29°   Wind: 12mph
Humidity: 43%   Direction: 210°SSW
Pressure: 30.05"   Gusts: 17mph
Location:  45.83°N, 113.98°W
Report Text: KBTM 222053Z AUTO 21010G15KT 10SM CLR 11/M02 A3005 RMK AO2 SLP168 T01061017 58009
Loading
Personal Weather Stations






























Interactive Weather Map
Tropical Storm Tracking
New forecast layout! Learn more

10-Day Weather Forecast

Advertisements
Track Severe Weather on mobile